Time,TemperatureF,DewpointF,PressureIn,WindDirection,WindDirectionDegrees,WindSpeedMPH,WindSpeedGustMPH,Humidity,HourlyPrecipIn,Conditions,Clouds,dailyrainin,SoftwareType,DateUTC
2013-10-04 00:01:00,68.2,65.5,28.79,NE,45,0.0,0.0,91,0.00,,---,0.00,VWS V14.01,2013-10-04 05:01:00,
2013-10-04 00:06:00,68.2,65.5,28.79,NE,45,0.0,0.0,91,0.00,,---,0.00,VWS V14.01,2013-10-04 05:06:00,
2013-10-04 00:11:00,68.2,65.5,28.79,NE,45,0.0,0.0,91,0.00,,---,0.00,VWS V14.01,2013-10-04 05:11:00,
2013-10-04 00:13:00,68.2,65.5,28.79,NE,45,0.0,0.0,91,0.00,,---,0.00,VWS V14.01,2013-10-04 05:13:00,
2013-10-04 00:15:00,68.0,65.3,28.79,NE,45,0.0,0.0,91,0.00,,---,0.00,VWS V14.01,2013-10-04 05:15:00,
2013-10-04 00:16:00,68.0,65.3,28.79,NE,45,0.0,0.0,91,0.00,,---,0.00,VWS V14.01,2013-10-04 05:16:00,
2013-10-04 00:22:00,68.0,65.6,28.79,NE,45,0.0,0.0,92,0.00,,---,0.00,VWS V14.01,2013-10-04 05:22:00,
2013-10-04 00:26:00,68.0,65.6,28.79,NE,45,0.0,0.0,92,0.00,,---,0.00,VWS V14.01,2013-10-04 05:26:00,
2013-10-04 00:29:00,67.8,65.4,28.79,NE,45,0.0,0.0,92,0.00,,---,0.00,VWS V14.01,2013-10-04 05:29:00,
2013-10-04 00:34:00,67.8,65.4,28.79,NE,45,0.0,0.0,92,0.00,,---,0.00,VWS V14.01,2013-10-04 05:34:00,
2013-10-04 00:39:00,67.8,65.4,28.79,NE,45,0.0,0.0,92,0.00,,---,0.00,VWS V14.01,2013-10-04 05:39:00,
2013-10-04 00:44:00,67.8,65.7,28.79,NE,45,0.0,0.0,93,0.00,,---,0.00,VWS V14.01,2013-10-04 05:44:00,
2013-10-04 00:49:00,67.8,65.7,28.79,NE,45,0.0,0.0,93,0.00,,---,0.00,VWS V14.01,2013-10-04 05:49:00,
2013-10-04 00:54:00,67.8,65.7,28.79,NE,45,0.0,0.0,93,0.00,,---,0.00,VWS V14.01,2013-10-04 05:54:00,
2013-10-04 00:59:00,67.8,65.7,28.82,NE,45,0.0,0.0,93,0.00,,---,0.00,VWS V14.01,2013-10-04 05:59:00,
2013-10-04 01:04:00,67.8,65.7,28.82,NE,45,0.0,0.0,93,0.00,,---,0.00,VWS V14.01,2013-10-04 06:04:00,
2013-10-04 01:10:00,67.8,65.7,28.82,NE,45,0.0,0.0,93,0.00,,---,0.00,VWS V14.01,2013-10-04 06:10:00,
2013-10-04 01:15:00,68.0,65.9,28.79,NE,45,0.0,0.0,93,0.00,,---,0.00,VWS V14.01,2013-10-04 06:15:00,
2013-10-04 01:20:00,68.0,65.9,28.79,NE,45,0.0,0.0,93,0.00,,---,0.00,VWS V14.01,2013-10-04 06:20:00,
2013-10-04 01:25:00,68.0,65.9,28.79,NE,45,0.0,0.0,93,0.00,,---,0.00,VWS V14.01,2013-10-04 06:25:00,
2013-10-04 01:30:00,68.0,65.9,28.82,NE,45,0.0,0.0,93,0.00,,---,0.00,VWS V14.01,2013-10-04 06:30:00,
2013-10-04 01:35:00,68.0,65.9,28.82,NE,45,0.0,0.0,93,0.00,,---,0.00,VWS V14.01,2013-10-04 06:35:00,
2013-10-04 01:40:00,68.0,65.9,28.82,NE,45,0.0,0.0,93,0.00,,---,0.00,VWS V14.01,2013-10-04 06:40:00,
2013-10-04 01:45:00,68.0,65.9,28.79,NE,45,0.0,0.0,93,0.00,,---,0.00,VWS V14.01,2013-10-04 06:45:00,
2013-10-04 01:50:00,68.0,65.9,28.79,NE,45,0.0,0.0,93,0.00,,---,0.00,VWS V14.01,2013-10-04 06:50:00,
2013-10-04 01:55:00,68.0,65.9,28.79,NE,45,0.0,0.0,93,0.00,,---,0.00,VWS V14.01,2013-10-04 06:55:00,
2013-10-04 02:00:00,68.0,65.9,28.79,NE,45,0.0,0.0,93,0.00,,---,0.00,VWS V14.01,2013-10-04 07:00:00,
2013-10-04 02:05:00,68.0,65.9,28.79,NE,45,0.0,0.0,93,0.00,,---,0.00,VWS V14.01,2013-10-04 07:05:00,
2013-10-04 02:10:00,68.0,66.2,28.79,NE,45,0.0,0.0,94,0.00,,---,0.00,VWS V14.01,2013-10-04 07:10:00,
2013-10-04 02:15:00,68.0,66.2,28.79,NE,45,0.0,0.0,94,0.00,,---,0.00,VWS V14.01,2013-10-04 07:15:00,
2013-10-04 02:20:00,68.0,66.2,28.79,NE,45,0.0,0.0,94,0.00,,---,0.00,VWS V14.01,2013-10-04 07:20:00,
2013-10-04 02:25:00,68.0,66.2,28.79,NE,45,0.0,0.0,94,0.00,,---,0.00,VWS V14.01,2013-10-04 07:25:00,
2013-10-04 02:30:00,68.2,66.4,28.79,NE,45,0.0,0.0,94,0.00,,---,0.00,VWS V14.01,2013-10-04 07:30:00,
2013-10-04 02:35:00,68.2,66.4,28.79,NE,45,0.0,0.0,94,0.00,,---,0.00,VWS V14.01,2013-10-04 07:35:00,
2013-10-04 02:40:00,68.2,66.4,28.79,NE,45,0.0,0.0,94,0.00,,---,0.00,VWS V14.01,2013-10-04 07:40:00,
2013-10-04 02:46:00,67.8,66.0,28.85,NE,45,0.0,0.0,94,0.00,,---,0.00,VWS V14.01,2013-10-04 07:46:00,
2013-10-04 02:51:00,66.7,64.3,28.85,NE,45,0.0,0.0,92,0.00,,---,0.00,VWS V14.01,2013-10-04 07:51:00,
2013-10-04 02:56:00,65.5,62.8,28.85,NE,45,0.0,0.0,91,0.00,,---,0.00,VWS V14.01,2013-10-04 07:56:00,
2013-10-04 03:01:00,64.8,61.8,28.85,NE,45,0.0,0.0,90,0.00,,---,0.00,VWS V14.01,2013-10-04 08:01:00,
2013-10-04 03:06:00,64.2,61.5,28.85,NE,45,0.0,0.0,91,0.00,,---,0.00,VWS V14.01,2013-10-04 08:06:00,
2013-10-04 03:11:00,63.7,61.3,28.85,NE,45,0.0,0.0,92,0.00,,---,0.00,VWS V14.01,2013-10-04 08:11:00,
2013-10-04 03:16:00,63.5,61.1,28.85,NE,45,0.0,0.0,92,0.00,,---,0.00,VWS V14.01,2013-10-04 08:16:00,
2013-10-04 03:21:00,63.1,60.8,28.85,NE,45,0.0,0.0,92,0.00,,---,0.00,VWS V14.01,2013-10-04 08:21:00,
2013-10-04 03:26:00,63.0,60.9,28.85,NE,45,0.0,0.0,93,0.00,,---,0.00,VWS V14.01,2013-10-04 08:26:00,
2013-10-04 03:31:00,62.8,60.7,28.85,NE,45,0.0,0.0,93,0.00,,---,0.00,VWS V14.01,2013-10-04 08:31:00,
2013-10-04 03:36:00,62.6,60.8,28.85,NE,45,0.0,0.0,94,0.00,,---,0.00,VWS V14.01,2013-10-04 08:36:00,
2013-10-04 03:41:00,62.6,60.8,28.85,NE,45,0.0,0.0,94,0.00,,---,0.00,VWS V14.01,2013-10-04 08:41:00,
2013-10-04 03:46:00,62.8,61.3,28.85,NE,45,0.0,0.0,95,0.00,,---,0.00,VWS V14.01,2013-10-04 08:46:00,
2013-10-04 03:51:00,62.8,61.3,28.85,NE,45,0.0,0.0,95,0.00,,---,0.00,VWS V14.01,2013-10-04 08:51:00,
2013-10-04 03:56:00,62.8,61.3,28.85,NE,45,0.0,0.0,95,0.00,,---,0.00,VWS V14.01,2013-10-04 08:56:00,
2013-10-04 04:01:00,63.0,61.5,28.85,NE,45,0.0,0.0,95,0.00,,---,0.00,VWS V14.01,2013-10-04 09:01:00,
2013-10-04 04:06:00,63.0,61.5,28.85,NE,45,0.0,0.0,95,0.00,,---,0.00,VWS V14.01,2013-10-04 09:06:00,
2013-10-04 04:11:00,62.8,61.3,28.85,NE,45,0.0,0.0,95,0.00,,---,0.00,VWS V14.01,2013-10-04 09:11:00,
2013-10-04 04:16:00,62.8,61.6,28.85,NE,45,0.0,0.0,96,0.00,,---,0.00,VWS V14.01,2013-10-04 09:16:00,
2013-10-04 04:21:00,62.8,61.6,28.85,NE,45,0.0,0.0,96,0.00,,---,0.00,VWS V14.01,2013-10-04 09:21:00,
2013-10-04 04:26:00,62.8,61.6,28.85,NE,45,0.0,0.0,96,0.00,,---,0.00,VWS V14.01,2013-10-04 09:26:00,
2013-10-04 04:32:00,62.8,61.6,28.85,NE,45,0.0,0.0,96,0.00,,---,0.00,VWS V14.01,2013-10-04 09:32:00,
2013-10-04 04:37:00,62.8,61.6,28.85,NE,45,0.0,0.0,96,0.00,,---,0.00,VWS V14.01,2013-10-04 09:37:00,
2013-10-04 04:42:00,62.8,61.6,28.85,NE,45,0.0,0.0,96,0.00,,---,0.00,VWS V14.01,2013-10-04 09:42:00,
2013-10-04 04:47:00,62.8,61.6,28.85,NE,45,0.0,0.0,96,0.00,,---,0.00,VWS V14.01,2013-10-04 09:47:00,
2013-10-04 04:52:00,62.8,61.6,28.85,NE,45,0.0,0.0,96,0.00,,---,0.00,VWS V14.01,2013-10-04 09:52:00,
2013-10-04 04:57:00,62.8,61.6,28.85,NE,45,0.0,0.0,96,0.00,,---,0.00,VWS V14.01,2013-10-04 09:57:00,
2013-10-04 05:02:00,62.8,61.6,28.85,NE,45,0.0,0.0,96,0.00,,---,0.00,VWS V14.01,2013-10-04 10:02:00,
2013-10-04 05:07:00,62.8,61.6,28.85,NE,45,0.0,0.0,96,0.00,,---,0.00,VWS V14.01,2013-10-04 10:07:00,
2013-10-04 05:12:00,63.0,61.8,28.85,NE,45,0.0,0.0,96,0.00,,---,0.00,VWS V14.01,2013-10-04 10:12:00,
2013-10-04 05:17:00,62.8,61.6,28.85,NE,45,0.0,0.0,96,0.00,,---,0.00,VWS V14.01,2013-10-04 10:17:00,
2013-10-04 05:22:00,63.0,61.8,28.85,NE,45,0.0,0.0,96,0.00,,---,0.00,VWS V14.01,2013-10-04 10:22:00,
2013-10-04 05:27:00,62.8,61.6,28.85,NE,45,0.0,0.0,96,0.00,,---,0.00,VWS V14.01,2013-10-04 10:27:00,
2013-10-04 05:32:00,62.8,61.6,28.82,NE,45,0.0,0.0,96,0.00,,---,0.00,VWS V14.01,2013-10-04 10:32:00,
2013-10-04 05:37:00,62.8,61.6,28.82,NE,45,0.0,0.0,96,0.00,,---,0.00,VWS V14.01,2013-10-04 10:37:00,
2013-10-04 05:42:00,62.8,61.6,28.82,NE,45,0.0,0.0,96,0.00,,---,0.00,VWS V14.01,2013-10-04 10:42:00,
2013-10-04 05:48:00,62.8,61.6,28.85,NE,45,0.0,0.0,96,0.00,,---,0.00,VWS V14.01,2013-10-04 10:48:00,
2013-10-04 05:53:00,62.8,61.6,28.85,NE,45,0.0,0.0,96,0.00,,---,0.00,VWS V14.01,2013-10-04 10:53:00,
2013-10-04 05:58:00,62.8,61.6,28.85,NE,45,0.0,0.0,96,0.00,,---,0.00,VWS V14.01,2013-10-04 10:58:00,
2013-10-04 06:03:00,62.8,61.6,28.82,NE,45,0.0,0.0,96,0.00,,---,0.00,VWS V14.01,2013-10-04 11:03:00,
2013-10-04 06:08:00,62.8,61.6,28.82,NE,45,0.0,0.0,96,0.00,,---,0.00,VWS V14.01,2013-10-04 11:08:00,
2013-10-04 06:13:00,62.8,61.6,28.82,NE,45,0.0,0.0,96,0.00,,---,0.00,VWS V14.01,2013-10-04 11:13:00,
2013-10-04 06:18:00,62.8,61.6,28.79,NE,45,0.0,0.0,96,0.00,,---,0.00,VWS V14.01,2013-10-04 11:18:00,
2013-10-04 06:23:00,62.8,61.6,28.79,NE,45,0.0,0.0,96,0.00,,---,0.00,VWS V14.01,2013-10-04 11:23:00,
2013-10-04 06:28:00,62.8,61.6,28.79,NE,45,0.0,0.0,96,0.00,,---,0.00,VWS V14.01,2013-10-04 11:28:00,
2013-10-04 06:33:00,62.8,61.6,28.85,NE,45,0.0,0.0,96,0.00,,---,0.00,VWS V14.01,2013-10-04 11:33:00,
2013-10-04 06:38:00,62.8,61.6,28.85,NE,45,0.0,0.0,96,0.00,,---,0.00,VWS V14.01,2013-10-04 11:38:00,
2013-10-04 06:43:00,62.8,61.6,28.85,NE,45,0.0,0.0,96,0.00,,---,0.00,VWS V14.01,2013-10-04 11:43:00,
2013-10-04 06:48:00,62.8,61.6,28.88,NE,45,0.0,0.0,96,0.00,,---,0.00,VWS V14.01,2013-10-04 11:48:00,
2013-10-04 06:53:00,62.6,61.5,28.88,NE,45,0.0,0.0,96,0.00,,---,0.00,VWS V14.01,2013-10-04 11:53:00,
2013-10-04 06:58:00,62.6,61.5,28.88,NE,45,0.0,0.0,96,0.00,,---,0.00,VWS V14.01,2013-10-04 11:58:00,
2013-10-04 07:03:00,62.6,61.5,28.82,NE,45,0.0,0.0,96,0.00,,---,0.00,VWS V14.01,2013-10-04 12:03:00,
2013-10-04 07:08:00,62.4,61.3,28.82,NE,45,0.0,0.0,96,0.00,,---,0.00,VWS V14.01,2013-10-04 12:08:00,
2013-10-04 07:13:00,62.4,61.3,28.82,NE,45,0.0,0.0,96,0.00,,---,0.00,VWS V14.01,2013-10-04 12:13:00,
2013-10-04 07:19:00,62.4,61.3,28.85,NE,45,0.0,0.0,96,0.00,,---,0.00,VWS V14.01,2013-10-04 12:19:00,
2013-10-04 07:24:00,62.4,61.6,28.85,NE,45,0.0,0.0,97,0.00,,---,0.00,VWS V14.01,2013-10-04 12:24:00,
2013-10-04 07:29:00,62.4,61.6,28.85,NE,45,0.0,0.0,97,0.00,,---,0.00,VWS V14.01,2013-10-04 12:29:00,
2013-10-04 07:34:00,62.4,61.6,28.82,NE,45,0.0,0.0,97,0.00,,---,0.00,VWS V14.01,2013-10-04 12:34:00,
2013-10-04 07:39:00,62.4,61.6,28.82,NE,45,0.0,0.0,97,0.00,,---,0.00,VWS V14.01,2013-10-04 12:39:00,
2013-10-04 07:44:00,62.4,61.6,28.82,NE,45,0.0,0.0,97,0.00,,---,0.00,VWS V14.01,2013-10-04 12:44:00,
2013-10-04 07:49:00,62.4,61.6,28.88,NE,45,0.0,0.0,97,0.00,,---,0.00,VWS V14.01,2013-10-04 12:49:00,
2013-10-04 07:54:00,62.4,61.6,28.88,NE,45,0.0,0.0,97,0.00,,---,0.00,VWS V14.01,2013-10-04 12:54:00,
2013-10-04 07:59:00,62.4,61.6,28.88,NE,45,0.0,0.0,97,0.00,,---,0.00,VWS V14.01,2013-10-04 12:59:00,
2013-10-04 08:04:00,62.4,61.6,28.88,NE,45,0.0,0.0,97,0.00,,---,0.00,VWS V14.01,2013-10-04 13:04:00,
2013-10-04 08:09:00,63.1,62.0,28.88,NE,45,0.0,0.0,96,0.00,,---,0.00,VWS V14.01,2013-10-04 13:09:00,
2013-10-04 08:14:00,63.1,62.0,28.88,NE,45,0.0,0.0,96,0.00,,---,0.00,VWS V14.01,2013-10-04 13:14:00,
2013-10-04 08:19:00,63.1,62.0,28.85,NE,45,0.0,0.0,96,0.00,,---,0.00,VWS V14.01,2013-10-04 13:19:00,
2013-10-04 08:24:00,63.1,62.0,28.85,NE,45,0.0,0.0,96,0.00,,---,0.00,VWS V14.01,2013-10-04 13:24:00,
2013-10-04 08:29:00,63.1,62.0,28.85,NE,45,0.0,0.0,96,0.00,,---,0.00,VWS V14.01,2013-10-04 13:29:00,
2013-10-04 08:34:00,63.1,62.0,28.85,NE,45,0.0,0.0,96,0.00,,---,0.00,VWS V14.01,2013-10-04 13:34:00,
2013-10-04 08:40:00,63.5,62.3,28.85,NE,45,0.0,0.0,96,0.00,,---,0.00,VWS V14.01,2013-10-04 13:40:00,
2013-10-04 08:45:00,63.5,62.3,28.85,NE,45,0.0,0.0,96,0.00,,---,0.00,VWS V14.01,2013-10-04 13:45:00,
2013-10-04 08:50:00,63.7,62.2,28.85,NE,45,0.0,0.0,95,0.00,,---,0.00,VWS V14.01,2013-10-04 13:50:00,
2013-10-04 08:55:00,63.7,62.2,28.85,NE,45,0.0,0.0,95,0.00,,---,0.00,VWS V14.01,2013-10-04 13:55:00,
2013-10-04 09:00:00,63.7,62.2,28.88,NE,45,0.0,0.0,95,0.00,,---,0.00,VWS V14.01,2013-10-04 14:00:00,
2013-10-04 09:05:00,63.7,62.2,28.88,NE,45,0.0,0.0,95,0.00,,---,0.00,VWS V14.01,2013-10-04 14:05:00,
2013-10-04 09:10:00,63.7,62.2,28.88,NE,45,0.0,0.0,95,0.00,,---,0.00,VWS V14.01,2013-10-04 14:10:00,
2013-10-04 09:15:00,63.7,62.2,28.88,NE,45,0.0,0.0,95,0.00,,---,0.00,VWS V14.01,2013-10-04 14:15:00,
2013-10-04 09:20:00,63.7,62.2,28.88,NE,45,0.0,0.0,95,0.00,,---,0.00,VWS V14.01,2013-10-04 14:20:00,
2013-10-04 09:25:00,63.7,62.2,28.88,NE,45,0.0,0.0,95,0.00,,---,0.00,VWS V14.01,2013-10-04 14:25:00,
2013-10-04 09:30:00,63.5,62.0,28.88,NE,45,0.0,0.0,95,0.00,,---,0.00,VWS V14.01,2013-10-04 14:30:00,
2013-10-04 09:35:00,63.7,62.2,28.88,NE,45,0.0,0.0,95,0.00,,---,0.00,VWS V14.01,2013-10-04 14:35:00,
2013-10-04 09:40:00,63.7,62.2,28.88,NE,45,0.0,0.0,95,0.00,,---,0.00,VWS V14.01,2013-10-04 14:40:00,
2013-10-04 09:45:00,63.9,62.4,28.88,NE,45,0.0,0.0,95,0.00,,---,0.00,VWS V14.01,2013-10-04 14:45:00,
2013-10-04 09:50:00,63.9,62.4,28.88,NE,45,0.0,0.0,95,0.00,,---,0.00,VWS V14.01,2013-10-04 14:50:00,
2013-10-04 09:56:00,63.9,62.4,28.88,NE,45,0.0,0.0,95,0.00,,---,0.00,VWS V14.01,2013-10-04 14:56:00,
2013-10-04 10:01:00,63.9,62.4,28.88,NE,45,0.0,0.0,95,0.00,,---,0.00,VWS V14.01,2013-10-04 15:01:00,
2013-10-04 10:06:00,63.9,62.4,28.88,NE,45,0.0,0.0,95,0.00,,---,0.00,VWS V14.01,2013-10-04 15:06:00,
2013-10-04 10:11:00,63.9,62.4,28.88,NE,45,0.0,0.0,95,0.00,,---,0.00,VWS V14.01,2013-10-04 15:11:00,
2013-10-04 10:16:00,63.9,62.4,28.85,NE,45,0.0,0.0,95,0.00,,---,0.00,VWS V14.01,2013-10-04 15:16:00,
2013-10-04 10:18:00,63.9,62.4,28.85,NE,45,0.0,0.0,95,0.00,,---,0.00,VWS V14.01,2013-10-04 15:18:00,
2013-10-04 10:23:00,63.9,62.4,28.85,NE,45,0.0,0.0,95,0.00,,---,0.00,VWS V14.01,2013-10-04 15:23:00,
2013-10-04 10:28:00,64.2,62.8,28.85,NE,45,0.0,0.0,95,0.00,,---,0.00,VWS V14.01,2013-10-04 15:28:00,
2013-10-04 10:33:00,64.2,62.8,28.85,NE,45,0.0,0.0,95,0.00,,---,0.00,VWS V14.01,2013-10-04 15:33:00,
2013-10-04 10:39:00,64.2,62.8,28.85,NE,45,0.0,0.0,95,0.00,,---,0.00,VWS V14.01,2013-10-04 15:39:00,
2013-10-04 10:44:00,64.2,62.8,28.85,NE,45,0.0,0.0,95,0.00,,---,0.00,VWS V14.01,2013-10-04 15:44:00,
2013-10-04 10:49:00,64.2,62.8,28.85,NE,45,0.0,0.0,95,0.00,,---,0.00,VWS V14.01,2013-10-04 15:49:00,
2013-10-04 10:54:00,64.2,62.8,28.85,NE,45,0.0,0.0,95,0.00,,---,0.00,VWS V14.01,2013-10-04 15:54:00,
2013-10-04 10:59:00,64.2,62.8,28.85,NE,45,0.0,0.0,95,0.00,,---,0.00,VWS V14.01,2013-10-04 15:59:00,
2013-10-04 11:04:00,64.2,62.8,28.85,NE,45,0.0,0.0,95,0.00,,---,0.00,VWS V14.01,2013-10-04 16:04:00,
2013-10-04 11:09:00,64.2,62.8,28.85,NE,45,0.0,0.0,95,0.00,,---,0.00,VWS V14.01,2013-10-04 16:09:00,
2013-10-04 11:14:00,64.2,62.8,28.85,NE,45,0.0,0.0,95,0.00,,---,0.00,VWS V14.01,2013-10-04 16:14:00,
2013-10-04 11:19:00,64.2,62.8,28.85,NE,45,0.0,0.0,95,0.00,,---,0.00,VWS V14.01,2013-10-04 16:19:00,
2013-10-04 11:24:00,64.2,62.8,28.85,NE,45,0.0,0.0,95,0.00,,---,0.00,VWS V14.01,2013-10-04 16:24:00,
2013-10-04 11:29:00,64.2,62.8,28.85,NE,45,0.0,0.0,95,0.00,,---,0.00,VWS V14.01,2013-10-04 16:29:00,
2013-10-04 11:34:00,64.0,62.6,28.85,NE,45,0.0,0.0,95,0.00,,---,0.00,VWS V14.01,2013-10-04 16:34:00,
2013-10-04 11:39:00,64.0,62.6,28.85,NE,45,0.0,0.0,95,0.00,,---,0.00,VWS V14.01,2013-10-04 16:39:00,
2013-10-04 11:44:00,64.0,62.6,28.85,NE,45,0.0,0.0,95,0.00,,---,0.00,VWS V14.01,2013-10-04 16:44:00,
2013-10-04 11:49:00,64.0,62.6,28.85,NE,45,0.0,0.0,95,0.00,,---,0.00,VWS V14.01,2013-10-04 16:49:00,
2013-10-04 11:54:00,64.0,62.6,28.85,NE,45,0.0,0.0,95,0.00,,---,0.00,VWS V14.01,2013-10-04 16:54:00,
2013-10-04 11:59:00,64.0,62.6,28.85,NE,45,0.0,0.0,95,0.00,,---,0.00,VWS V14.01,2013-10-04 16:59:00,
2013-10-04 12:04:00,64.2,62.8,28.85,NE,45,0.0,0.0,95,0.00,,---,0.00,VWS V14.01,2013-10-04 17:04:00,
2013-10-04 12:09:00,64.2,62.8,28.85,NE,45,0.0,0.0,95,0.00,,---,0.00,VWS V14.01,2013-10-04 17:09:00,
2013-10-04 12:14:00,64.2,62.8,28.85,NE,45,0.0,0.0,95,0.00,,---,0.00,VWS V14.01,2013-10-04 17:14:00,
2013-10-04 12:19:00,64.2,62.8,28.85,NE,45,0.0,0.0,95,0.00,,---,0.00,VWS V14.01,2013-10-04 17:19:00,
2013-10-04 12:25:00,64.2,62.8,28.85,NE,45,0.0,0.0,95,0.00,,---,0.00,VWS V14.01,2013-10-04 17:25:00,
2013-10-04 12:30:00,64.2,62.8,28.85,NE,45,0.0,0.0,95,0.00,,---,0.00,VWS V14.01,2013-10-04 17:30:00,
2013-10-04 12:35:00,64.2,62.8,28.85,NE,45,0.0,0.0,95,0.00,,---,0.00,VWS V14.01,2013-10-04 17:35:00,
2013-10-04 13:00:00,64.8,63.3,28.85,NE,45,0.0,0.0,95,0.00,,---,0.00,VWS V14.01,2013-10-04 18:00:00,
2013-10-04 13:05:00,64.8,63.3,28.85,NE,45,0.0,0.0,95,0.00,,---,0.00,VWS V14.01,2013-10-04 18:05:00,
2013-10-04 13:10:00,64.8,63.3,28.85,NE,45,0.0,0.0,95,0.00,,---,0.00,VWS V14.01,2013-10-04 18:10:00,
2013-10-04 13:15:00,64.9,63.5,28.82,NE,45,0.0,0.0,95,0.00,,---,0.00,VWS V14.01,2013-10-04 18:15:00,
2013-10-04 13:21:00,64.9,63.5,28.82,NE,45,0.0,0.0,95,0.00,,---,0.00,VWS V14.01,2013-10-04 18:21:00,
2013-10-04 13:26:00,65.1,63.7,28.82,NE,45,0.0,0.0,95,0.00,,---,0.00,VWS V14.01,2013-10-04 18:26:00,
2013-10-04 13:31:00,65.1,63.7,28.79,NE,45,0.0,0.0,95,0.00,,---,0.00,VWS V14.01,2013-10-04 18:31:00,
2013-10-04 13:36:00,65.3,63.8,28.79,NE,45,0.0,0.0,95,0.00,,---,0.00,VWS V14.01,2013-10-04 18:36:00,
2013-10-04 13:41:00,65.3,63.8,28.79,NE,45,0.0,0.0,95,0.00,,---,0.00,VWS V14.01,2013-10-04 18:41:00,
2013-10-04 13:46:00,65.7,64.2,28.82,NE,45,0.0,0.0,95,0.00,,---,0.00,VWS V14.01,2013-10-04 18:46:00,
2013-10-04 13:51:00,65.7,64.2,28.82,NE,45,0.0,0.0,95,0.00,,---,0.00,VWS V14.01,2013-10-04 18:51:00,
2013-10-04 13:56:00,65.8,64.4,28.82,NE,45,0.0,0.0,95,0.00,,---,0.00,VWS V14.01,2013-10-04 18:56:00,
2013-10-04 14:01:00,65.8,64.4,28.82,NE,45,0.0,0.0,95,0.00,,---,0.00,VWS V14.01,2013-10-04 19:01:00,
2013-10-04 14:06:00,66.0,64.6,28.82,NE,45,0.0,0.0,95,0.00,,---,0.00,VWS V14.01,2013-10-04 19:06:00,
2013-10-04 14:11:00,66.2,64.7,28.82,NE,45,0.0,0.0,95,0.00,,---,0.00,VWS V14.01,2013-10-04 19:11:00,
2013-10-04 14:16:00,66.4,64.9,28.82,NE,45,0.0,0.0,95,0.00,,---,0.00,VWS V14.01,2013-10-04 19:16:00,
2013-10-04 14:21:00,66.7,65.3,28.82,NE,45,0.0,0.0,95,0.00,,---,0.00,VWS V14.01,2013-10-04 19:21:00,
2013-10-04 14:26:00,67.1,65.6,28.82,NE,45,0.0,0.0,95,0.00,,---,0.00,VWS V14.01,2013-10-04 19:26:00,
2013-10-04 14:32:00,67.3,65.8,28.79,NE,45,0.0,0.0,95,0.00,,---,0.00,VWS V14.01,2013-10-04 19:32:00,
2013-10-04 14:37:00,67.6,66.2,28.79,NE,45,0.0,0.0,95,0.00,,---,0.00,VWS V14.01,2013-10-04 19:37:00,
2013-10-04 14:42:00,67.8,66.3,28.79,NE,45,0.0,0.0,95,0.00,,---,0.00,VWS V14.01,2013-10-04 19:42:00,
2013-10-04 14:47:00,68.0,66.2,28.79,NE,45,0.0,0.0,94,0.00,,---,0.00,VWS V14.01,2013-10-04 19:47:00,
2013-10-04 14:52:00,68.2,66.4,28.79,NE,45,0.0,0.0,94,0.00,,---,0.00,VWS V14.01,2013-10-04 19:52:00,
2013-10-04 14:57:00,68.4,66.6,28.79,NE,45,0.0,0.0,94,0.00,,---,0.00,VWS V14.01,2013-10-04 19:57:00,
2013-10-04 15:02:00,68.7,67.2,28.79,NE,45,0.0,0.0,95,0.00,,---,0.00,VWS V14.01,2013-10-04 20:02:00,
2013-10-04 15:07:00,68.9,67.4,28.79,NE,45,0.0,0.0,95,0.00,,---,0.00,VWS V14.01,2013-10-04 20:07:00,
2013-10-04 15:12:00,69.4,67.9,28.79,NE,45,0.0,0.0,95,0.00,,---,0.00,VWS V14.01,2013-10-04 20:12:00,
2013-10-04 15:17:00,70.0,68.2,28.79,NE,45,0.0,0.0,94,0.00,,---,0.00,VWS V14.01,2013-10-04 20:17:00,
2013-10-04 15:22:00,70.2,68.4,28.79,NE,45,0.0,0.0,94,0.00,,---,0.00,VWS V14.01,2013-10-04 20:22:00,
2013-10-04 15:27:00,70.3,68.5,28.79,NE,45,0.0,0.0,94,0.00,,---,0.00,VWS V14.01,2013-10-04 20:27:00,
2013-10-04 15:32:00,70.5,68.7,28.79,NE,45,0.0,0.0,94,0.00,,---,0.00,VWS V14.01,2013-10-04 20:32:00,
2013-10-04 15:37:00,70.5,68.7,28.79,NE,45,0.0,0.0,94,0.00,,---,0.00,VWS V14.01,2013-10-04 20:37:00,
2013-10-04 15:42:00,70.7,68.9,28.79,NE,45,0.0,0.0,94,0.00,,---,0.00,VWS V14.01,2013-10-04 20:42:00,
2013-10-04 15:47:00,70.7,68.9,28.79,NE,45,0.0,0.0,94,0.00,,---,0.00,VWS V14.01,2013-10-04 20:47:00,
2013-10-04 15:53:00,70.9,69.1,28.79,NE,45,0.0,0.0,94,0.00,,---,0.00,VWS V14.01,2013-10-04 20:53:00,
2013-10-04 15:58:00,71.1,69.2,28.79,NE,45,0.0,0.0,94,0.00,,---,0.00,VWS V14.01,2013-10-04 20:58:00,
2013-10-04 16:03:00,71.2,69.4,28.79,NE,45,0.0,0.0,94,0.00,,---,0.00,VWS V14.01,2013-10-04 21:03:00,
2013-10-04 16:08:00,71.2,69.4,28.79,NE,45,0.0,0.0,94,0.00,,---,0.00,VWS V14.01,2013-10-04 21:08:00,
2013-10-04 16:13:00,71.6,69.5,28.79,NE,45,0.0,0.0,93,0.00,,---,0.00,VWS V14.01,2013-10-04 21:13:00,
2013-10-04 16:18:00,71.6,69.5,28.79,NE,45,0.0,0.0,93,0.00,,---,0.00,VWS V14.01,2013-10-04 21:18:00,
2013-10-04 16:23:00,71.8,69.7,28.79,NE,45,0.0,0.0,93,0.00,,---,0.00,VWS V14.01,2013-10-04 21:23:00,
2013-10-04 16:28:00,71.8,69.7,28.79,NE,45,0.0,0.0,93,0.00,,---,0.00,VWS V14.01,2013-10-04 21:28:00,
2013-10-04 16:33:00,71.8,69.7,28.76,NE,45,0.0,0.0,93,0.00,,---,0.00,VWS V14.01,2013-10-04 21:33:00,
2013-10-04 16:38:00,72.0,69.8,28.76,NE,45,0.0,0.0,93,0.00,,---,0.00,VWS V14.01,2013-10-04 21:38:00,
2013-10-04 16:43:00,72.0,69.8,28.76,NE,45,0.0,0.0,93,0.00,,---,0.00,VWS V14.01,2013-10-04 21:43:00,
2013-10-04 16:48:00,72.1,70.0,28.76,NE,45,0.0,0.0,93,0.00,,---,0.00,VWS V14.01,2013-10-04 21:48:00,
2013-10-04 16:53:00,72.3,70.2,28.76,NE,45,0.0,0.0,93,0.00,,---,0.00,VWS V14.01,2013-10-04 21:53:00,
2013-10-04 16:58:00,72.5,70.4,28.76,NE,45,0.0,0.0,93,0.00,,---,0.00,VWS V14.01,2013-10-04 21:58:00,
2013-10-04 17:03:00,72.7,70.5,28.76,NE,45,0.0,0.0,93,0.00,,---,0.00,VWS V14.01,2013-10-04 22:03:00,
2013-10-04 17:09:00,72.7,70.5,28.76,NE,45,0.0,0.0,93,0.00,,---,0.00,VWS V14.01,2013-10-04 22:09:00,
2013-10-04 17:14:00,72.7,70.5,28.76,NE,45,0.0,0.0,93,0.00,,---,0.00,VWS V14.01,2013-10-04 22:14:00,
2013-10-04 17:19:00,72.7,70.5,28.76,NE,45,0.0,0.0,93,0.00,,---,0.00,VWS V14.01,2013-10-04 22:19:00,
2013-10-04 17:24:00,72.7,70.5,28.76,NE,45,0.0,0.0,93,0.00,,---,0.00,VWS V14.01,2013-10-04 22:24:00,
2013-10-04 17:29:00,72.7,70.5,28.76,NE,45,0.0,0.0,93,0.00,,---,0.00,VWS V14.01,2013-10-04 22:29:00,
2013-10-04 17:34:00,72.7,70.5,28.76,NE,45,0.0,0.0,93,0.00,,---,0.00,VWS V14.01,2013-10-04 22:34:00,
2013-10-04 17:39:00,72.5,70.4,28.76,NE,45,0.0,0.0,93,0.00,,---,0.00,VWS V14.01,2013-10-04 22:39:00,
2013-10-04 17:44:00,72.7,70.5,28.76,NE,45,0.0,0.0,93,0.00,,---,0.00,VWS V14.01,2013-10-04 22:44:00,
2013-10-04 17:49:00,72.7,70.5,28.76,NE,45,0.0,0.0,93,0.00,,---,0.00,VWS V14.01,2013-10-04 22:49:00,
2013-10-04 17:54:00,72.7,70.9,28.76,NE,45,0.0,0.0,94,0.00,,---,0.00,VWS V14.01,2013-10-04 22:54:00,
2013-10-04 17:59:00,72.7,70.9,28.76,NE,45,0.0,0.0,94,0.00,,---,0.00,VWS V14.01,2013-10-04 22:59:00,
2013-10-04 18:04:00,72.7,70.9,28.76,NE,45,0.0,0.0,94,0.00,,---,0.00,VWS V14.01,2013-10-04 23:04:00,
2013-10-04 18:09:00,72.5,70.4,28.76,NE,45,0.0,0.0,93,0.00,,---,0.00,VWS V14.01,2013-10-04 23:09:00,
2013-10-04 18:14:00,72.3,70.5,28.76,NE,45,0.0,0.0,94,0.00,,---,0.00,VWS V14.01,2013-10-04 23:14:00,
2013-10-04 18:19:00,72.3,70.5,28.76,NE,45,0.0,0.0,94,0.00,,---,0.00,VWS V14.01,2013-10-04 23:19:00,
2013-10-04 18:24:00,72.1,70.3,28.76,NE,45,0.0,0.0,94,0.00,,---,0.00,VWS V14.01,2013-10-04 23:24:00,
2013-10-04 18:29:00,72.1,70.3,28.76,NE,45,0.0,0.0,94,0.00,,---,0.00,VWS V14.01,2013-10-04 23:29:00,
2013-10-04 18:34:00,72.1,70.3,28.76,NE,45,0.0,0.0,94,0.00,,---,0.00,VWS V14.01,2013-10-04 23:34:00,
2013-10-04 18:39:00,72.0,70.1,28.76,NE,45,0.0,0.0,94,0.00,,---,0.00,VWS V14.01,2013-10-04 23:39:00,
2013-10-04 18:44:00,71.8,70.0,28.76,NE,45,0.0,0.0,94,0.00,,---,0.00,VWS V14.01,2013-10-04 23:44:00,
2013-10-04 18:49:00,71.8,70.0,28.76,NE,45,0.0,0.0,94,0.00,,---,0.00,VWS V14.01,2013-10-04 23:49:00,
2013-10-04 18:55:00,71.8,70.0,28.76,NE,45,0.0,0.0,94,0.00,,---,0.00,VWS V14.01,2013-10-04 23:55:00,
2013-10-04 19:00:00,71.8,70.0,28.76,NE,45,0.0,0.0,94,0.00,,---,0.00,VWS V14.01,2013-10-05 00:00:00,
2013-10-04 19:05:00,71.6,69.8,28.76,NE,45,0.0,0.0,94,0.00,,---,0.00,VWS V14.01,2013-10-05 00:05:00,
2013-10-04 19:10:00,71.6,69.8,28.76,NE,45,0.0,0.0,94,0.00,,---,0.00,VWS V14.01,2013-10-05 00:10:00,
2013-10-04 19:15:00,71.6,69.8,28.76,NE,45,0.0,0.0,94,0.00,,---,0.00,VWS V14.01,2013-10-05 00:15:00,
2013-10-04 19:20:00,71.6,69.8,28.76,NE,45,0.0,0.0,94,0.00,,---,0.00,VWS V14.01,2013-10-05 00:20:00,
2013-10-04 19:25:00,71.6,69.8,28.76,NE,45,0.0,0.0,94,0.00,,---,0.00,VWS V14.01,2013-10-05 00:25:00,
2013-10-04 19:30:00,71.6,69.8,28.73,NE,45,0.0,0.0,94,0.00,,---,0.00,VWS V14.01,2013-10-05 00:30:00,
2013-10-04 19:35:00,71.8,69.7,28.73,NE,45,0.0,0.0,93,0.00,,---,0.00,VWS V14.01,2013-10-05 00:35:00,
2013-10-04 19:40:00,72.0,69.8,28.73,NE,45,0.0,0.0,93,0.00,,---,0.00,VWS V14.01,2013-10-05 00:40:00,
2013-10-04 19:45:00,72.1,70.3,28.73,NE,45,0.0,0.0,94,0.00,,---,0.00,VWS V14.01,2013-10-05 00:45:00,
2013-10-04 19:50:00,72.5,70.7,28.73,NE,45,0.0,0.0,94,0.00,,---,0.00,VWS V14.01,2013-10-05 00:50:00,
2013-10-04 19:56:00,72.7,70.9,28.73,NE,45,0.0,0.0,94,0.00,,---,0.00,VWS V14.01,2013-10-05 00:56:00,
2013-10-04 20:01:00,72.9,71.0,28.73,NE,45,0.0,0.0,94,0.00,,---,0.00,VWS V14.01,2013-10-05 01:01:00,
2013-10-04 20:06:00,73.0,71.2,28.73,NE,45,0.0,0.0,94,0.00,,---,0.00,VWS V14.01,2013-10-05 01:06:00,
2013-10-04 20:11:00,73.2,71.1,28.73,NE,45,0.0,0.0,93,0.00,,---,0.00,VWS V14.01,2013-10-05 01:11:00,
2013-10-04 20:16:00,73.2,71.1,28.76,NE,45,0.0,0.0,93,0.00,,---,0.00,VWS V14.01,2013-10-05 01:16:00,
2013-10-04 20:21:00,73.2,70.8,28.76,NE,45,0.0,0.0,92,0.00,,---,0.00,VWS V14.01,2013-10-05 01:21:00,
2013-10-04 20:26:00,73.4,70.6,28.76,NE,45,0.0,0.0,91,0.00,,---,0.00,VWS V14.01,2013-10-05 01:26:00,
2013-10-04 20:31:00,73.6,70.5,28.76,NE,45,0.0,0.0,90,0.00,,---,0.00,VWS V14.01,2013-10-05 01:31:00,
2013-10-04 20:36:00,73.4,70.3,28.76,NE,45,0.0,0.0,90,0.00,,---,0.00,VWS V14.01,2013-10-05 01:36:00,
2013-10-04 20:41:00,73.4,70.3,28.76,NE,45,0.0,0.0,90,0.00,,---,0.00,VWS V14.01,2013-10-05 01:41:00,
2013-10-04 20:46:00,73.8,70.0,28.76,NE,45,0.0,0.0,88,0.00,,---,0.00,VWS V14.01,2013-10-05 01:46:00,
2013-10-04 20:51:00,73.8,70.0,28.76,NE,45,0.0,0.0,88,0.00,,---,0.00,VWS V14.01,2013-10-05 01:51:00,
2013-10-04 20:56:00,73.6,69.8,28.76,NE,45,0.0,0.0,88,0.00,,---,0.00,VWS V14.01,2013-10-05 01:56:00,
2013-10-04 21:01:00,73.8,69.7,28.76,NE,45,0.0,0.0,87,0.00,,---,0.00,VWS V14.01,2013-10-05 02:01:00,
2013-10-04 21:06:00,73.9,69.5,28.76,NE,45,0.0,0.0,86,0.00,,---,0.00,VWS V14.01,2013-10-05 02:06:00,
2013-10-04 21:11:00,73.9,69.2,28.76,NE,45,0.0,0.0,85,0.00,,---,0.00,VWS V14.01,2013-10-05 02:11:00,
2013-10-04 21:17:00,73.9,69.2,28.76,NE,45,0.0,0.0,85,0.00,,---,0.00,VWS V14.01,2013-10-05 02:17:00,
2013-10-04 21:22:00,73.9,69.2,28.76,NE,45,0.0,0.0,85,0.00,,---,0.00,VWS V14.01,2013-10-05 02:22:00,
2013-10-04 21:27:00,73.9,68.5,28.76,NE,45,0.0,0.0,83,0.00,,---,0.00,VWS V14.01,2013-10-05 02:27:00,
2013-10-04 21:32:00,74.1,68.6,28.76,NE,45,0.0,0.0,83,0.00,,---,0.00,VWS V14.01,2013-10-05 02:32:00,
2013-10-04 21:37:00,74.3,68.1,28.76,NE,45,0.0,0.0,81,0.00,,---,0.00,VWS V14.01,2013-10-05 02:37:00,
2013-10-04 21:42:00,74.3,68.1,28.76,NE,45,0.0,0.0,81,0.00,,---,0.00,VWS V14.01,2013-10-05 02:42:00,
2013-10-04 21:47:00,74.3,68.1,28.76,NE,45,0.0,0.0,81,0.00,,---,0.00,VWS V14.01,2013-10-05 02:47:00,
2013-10-04 21:52:00,74.3,67.7,28.76,NE,45,0.0,0.0,80,0.00,,---,0.00,VWS V14.01,2013-10-05 02:52:00,
2013-10-04 21:57:00,74.5,67.9,28.76,NE,45,0.0,0.0,80,0.00,,---,0.00,VWS V14.01,2013-10-05 02:57:00,
2013-10-04 22:02:00,74.5,67.9,28.76,NE,45,0.0,0.0,80,0.00,,---,0.00,VWS V14.01,2013-10-05 03:02:00,
2013-10-04 22:07:00,74.5,67.6,28.76,NE,45,0.0,0.0,79,0.00,,---,0.00,VWS V14.01,2013-10-05 03:07:00,
2013-10-04 22:12:00,74.5,67.6,28.76,NE,45,0.0,0.0,79,0.00,,---,0.00,VWS V14.01,2013-10-05 03:12:00,
2013-10-04 22:17:00,74.5,67.6,28.76,NE,45,0.0,0.0,79,0.00,,---,0.00,VWS V14.01,2013-10-05 03:17:00,
2013-10-04 22:22:00,74.3,67.4,28.76,NE,45,0.0,0.0,79,0.00,,---,0.00,VWS V14.01,2013-10-05 03:22:00,
2013-10-04 22:27:00,74.3,67.4,28.76,NE,45,0.0,0.0,79,0.00,,---,0.00,VWS V14.01,2013-10-05 03:27:00,
2013-10-04 22:32:00,74.3,67.4,28.76,NE,45,0.0,0.0,79,0.00,,---,0.00,VWS V14.01,2013-10-05 03:32:00,
2013-10-04 22:37:00,74.1,67.6,28.76,NE,45,0.0,0.0,80,0.00,,---,0.00,VWS V14.01,2013-10-05 03:37:00,
2013-10-04 22:42:00,73.9,67.4,28.76,NE,45,0.0,0.0,80,0.00,,---,0.00,VWS V14.01,2013-10-05 03:42:00,
2013-10-04 22:47:00,73.6,67.4,28.76,NE,45,0.0,0.0,81,0.00,,---,0.00,VWS V14.01,2013-10-05 03:47:00,
2013-10-04 22:52:00,73.6,67.4,28.76,NE,45,0.0,0.0,81,0.00,,---,0.00,VWS V14.01,2013-10-05 03:52:00,
2013-10-04 22:57:00,73.4,67.6,28.76,NE,45,0.0,0.0,82,0.00,,---,0.00,VWS V14.01,2013-10-05 03:57:00,
2013-10-04 23:01:00,73.4,67.6,28.79,NE,45,0.0,0.0,82,0.00,,---,0.00,VWS V14.01,2013-10-05 04:01:00,
2013-10-04 23:02:00,73.4,67.6,28.79,NE,45,0.0,0.0,82,0.00,,---,0.00,VWS V14.01,2013-10-05 04:02:00,
2013-10-04 23:03:00,73.2,67.8,28.79,NE,45,0.0,0.0,83,0.00,,---,0.00,VWS V14.01,2013-10-05 04:03:00,
2013-10-04 23:08:00,73.2,67.8,28.79,NE,45,0.0,0.0,83,0.00,,---,0.00,VWS V14.01,2013-10-05 04:08:00,
2013-10-04 23:13:00,73.0,67.9,28.79,NE,45,0.0,0.0,84,0.00,,---,0.00,VWS V14.01,2013-10-05 04:13:00,
2013-10-04 23:18:00,72.9,67.8,28.79,NE,45,0.0,0.0,84,0.00,,---,0.00,VWS V14.01,2013-10-05 04:18:00,
2013-10-04 23:23:00,72.7,67.6,28.79,NE,45,0.0,0.0,84,0.00,,---,0.00,VWS V14.01,2013-10-05 04:23:00,
2013-10-04 23:28:00,72.3,67.6,28.79,NE,45,0.0,0.0,85,0.00,,---,0.00,VWS V14.01,2013-10-05 04:28:00,
2013-10-04 23:33:00,72.1,66.7,28.82,NE,45,0.0,0.0,83,0.00,,---,0.00,VWS V14.01,2013-10-05 04:33:00,
2013-10-04 23:38:00,72.0,65.8,28.82,NE,45,0.0,0.0,81,0.00,,---,0.00,VWS V14.01,2013-10-05 04:38:00,
2013-10-04 23:43:00,71.4,63.8,28.82,NE,45,0.0,0.0,77,0.00,,---,0.00,VWS V14.01,2013-10-05 04:43:00,
2013-10-04 23:48:00,71.1,63.5,28.82,NE,45,0.0,0.0,77,0.00,,---,0.00,VWS V14.01,2013-10-05 04:48:00,
2013-10-04 23:53:00,70.7,62.8,28.82,NE,45,0.0,0.0,76,0.00,,---,0.00,VWS V14.01,2013-10-05 04:53:00,
2013-10-04 23:58:00,70.5,63.0,28.82,NE,45,0.0,0.0,77,0.00,,---,0.00,VWS V14.01,2013-10-05 04:58:00,